This is the latest recevied weather packets stored in our database for station/object I4GOS-3. If no packets are shown the sender has not sent any weather packets the latest 1 day(s).
| Time | Temp. | Humidity | Pressure | Rain* | Wind** | Luminosity | Snow |
|---|---|---|---|---|---|---|---|
| 1777989478 | 20° C | 67% | 1013.1 hPa | 0 mm | 2.24 m/s, 132° | - | - |
| 1777989177 | 20° C | 68% | 1013.2 hPa | 0 mm | 5.36 m/s, 130° | - | - |
| 1777988877 | 19.44° C | 68% | 1013.4 hPa | 0 mm | 5.36 m/s, 136° | - | - |
| 1777988577 | 19.44° C | 67% | 1013.5 hPa | 0 mm | 4.47 m/s, 145° | - | - |
| 1777988277 | 20° C | 67% | 1013.5 hPa | 0 mm | 0.89 m/s, 151° | - | - |
| 1777987976 | 20° C | 67% | 1013.5 hPa | 0 mm | 2.68 m/s, 142° | - | - |
| 1777987676 | 20° C | 67% | 1013.5 hPa | 0 mm | 2.68 m/s, 164° | - | - |
| 1777987376 | 20° C | 67% | 1013.5 hPa | 0 mm | 4.02 m/s, 137° | - | - |
| 1777987076 | 20° C | 67% | 1013.6 hPa | 0 mm | 0 m/s | - | - |
| 1777986776 | 20° C | 67% | 1013.6 hPa | 0 mm | 3.13 m/s, 158° | - | - |
| 1777986475 | 20.56° C | 66% | 1013.5 hPa | 0 mm | 3.13 m/s, 149° | - | - |
| 1777986185 | 20.56° C | 66% | 1013.4 hPa | 0 mm | 2.68 m/s, 142° | - | - |
| 1777985875 | 20.56° C | 66% | 1013.5 hPa | 0 mm | 0 m/s | - | - |
| 1777985575 | 20.56° C | 66% | 1013.3 hPa | 0 mm | 2.68 m/s, 154° | - | - |
| 1777985274 | 20.56° C | 66% | 1013.4 hPa | 0 mm | 4.92 m/s, 133° | - | - |
| 1777984974 | 20.56° C | 65% | 1013.3 hPa | 0 mm | 4.02 m/s, 124° | - | - |
| 1777984674 | 20.56° C | 66% | 1013.4 hPa | 0 mm | 0 m/s | - | - |
| 1777984374 | 20.56° C | 66% | 1013.6 hPa | 0 mm | 0 m/s | - | - |
| 1777984073 | 20.56° C | 65% | 1013.4 hPa | 0 mm | 3.58 m/s, 133° | - | - |
| 1777983773 | 21.11° C | 64% | 1013.6 hPa | 0 mm | 4.02 m/s, 131° | - | - |
| 1777983473 | 21.11° C | 63% | 1013.5 hPa | 0 mm | 4.02 m/s, 135° | - | - |
| 1777983173 | 21.67° C | 63% | 1013.6 hPa | 0 mm | 1.79 m/s, 145° | - | - |
| 1777982872 | 21.67° C | 65% | 1013.5 hPa | 0 mm | 0 m/s | - | - |
| 1777982572 | 21.11° C | 65% | 1013.6 hPa | 0 mm | 0.45 m/s, 162° | - | - |
| 1777982272 | 20.56° C | 66% | 1013.5 hPa | 0 mm | 1.79 m/s, 142° | - | - |
* Rain latest hour (hover to see other rain measurements)
** Current wind speed in m/s (hover to see current wind gust speed)